This is the latest recevied weather packets stored in our database for station/object KE6YLF. If no packets are shown the sender has not sent any weather packets the latest 10 day(s).
| Time | Temp. | Humidity | Pressure | Rain* | Wind** | Luminosity | Snow |
|---|---|---|---|---|---|---|---|
| 1788197251 | 29.44° C | 59% | 1079.2 hPa | 0 mm | - | - | - |
| 1788196946 | 28.89° C | 60% | 1079.4 hPa | 0 mm | - | - | - |
| 1788196641 | 28.89° C | 61% | 1079.1 hPa | 0 mm | - | - | - |
| 1788196338 | 28.33° C | 61% | 1079 hPa | 0 mm | - | - | - |
| 1788196034 | 27.78° C | 63% | 1079.2 hPa | 0 mm | - | - | - |
| 1788195730 | 28.33° C | 63% | 1079.1 hPa | 0 mm | - | - | - |
| 1788195426 | 27.78° C | 67% | 1078.9 hPa | 0 mm | - | - | - |
| 1788195122 | 27.22° C | 70% | 1078.7 hPa | 0 mm | - | - | - |
| 1788194818 | 27.22° C | 70% | 1078.7 hPa | 0 mm | - | - | - |
| 1788194514 | 27.22° C | 71% | 1078.6 hPa | 0 mm | - | - | - |
| 1788194209 | 27.22° C | 70% | 1078.5 hPa | 0 mm | - | - | - |
| 1788193905 | 27.78° C | 69% | 1078.6 hPa | 0 mm | - | - | - |
| 1788193603 | 26.67° C | 70% | 1078.5 hPa | 0 mm | - | - | - |
| 1788193302 | 26.67° C | 70% | 1078.4 hPa | 0 mm | - | - | - |
| 1788192997 | 26.67° C | 69% | 1078.4 hPa | 0 mm | - | - | - |
| 1788192694 | 27.22° C | 69% | 1078.4 hPa | 0 mm | - | - | - |
| 1788192393 | 27.22° C | 68% | 1078.3 hPa | 0 mm | - | - | - |
| 1788192088 | 27.22° C | 66% | 1078.3 hPa | 0 mm | - | - | - |
| 1788191788 | 26.67° C | 66% | 1078.4 hPa | 0 mm | - | - | - |
| 1788191483 | 27.22° C | 64% | 1078.3 hPa | 0 mm | - | - | - |
| 1788191179 | 27.78° C | 63% | 1078.2 hPa | 0 mm | - | - | - |
| 1788190875 | 27.22° C | 66% | 1077.9 hPa | 0 mm | - | - | - |
| 1788190574 | 27.78° C | 65% | 1077.9 hPa | 0 mm | - | - | - |
| 1788190270 | 27.78° C | 65% | 1078 hPa | 0 mm | - | - | - |
| 1788189965 | 27.78° C | 64% | 1078 hPa | 0 mm | - | - | - |
* Rain latest hour (hover to see other rain measurements)
** Current wind speed in m/s (hover to see current wind gust speed)